createdAt,value
2023-02-19T00:00:05.654Z,79.72
2023-02-19T00:00:38.215Z,79.70
2023-02-19T00:01:16.234Z,79.82
2023-02-19T00:01:48.299Z,79.89
2023-02-19T00:02:20.076Z,80.20
2023-02-19T00:02:52.844Z,80.08
2023-02-19T00:03:24.714Z,80.03
2023-02-19T00:04:02.136Z,79.98
2023-02-19T00:04:33.814Z,79.87
2023-02-19T00:05:05.817Z,79.93
2023-02-19T00:05:37.425Z,80.19
2023-02-19T00:06:11.275Z,80.18
2023-02-19T00:06:44.007Z,80.21
2023-02-19T00:07:15.620Z,80.10
2023-02-19T00:07:47.213Z,80.18
2023-02-19T00:08:18.880Z,80.40
2023-02-19T00:08:50.843Z,80.20
2023-02-19T00:09:22.545Z,80.12
2023-02-19T00:09:54.166Z,80.16
2023-02-19T00:10:25.842Z,80.37
2023-02-19T00:11:08.757Z,80.40
2023-02-19T00:11:40.935Z,80.52
2023-02-19T00:12:12.626Z,80.68
2023-02-19T00:12:44.227Z,80.56
2023-02-19T00:13:15.835Z,80.52
2023-02-19T00:13:49.988Z,80.59
2023-02-19T00:14:21.995Z,80.55
2023-02-19T00:14:55.329Z,80.37
2023-02-19T00:15:27.112Z,80.42
2023-02-19T00:15:58.830Z,80.54
2023-02-19T00:16:40.084Z,80.47
2023-02-19T00:17:11.724Z,80.43
2023-02-19T00:17:43.331Z,80.64
2023-02-19T00:18:14.936Z,80.33
2023-02-19T00:18:47.101Z,80.24
2023-02-19T00:19:20.634Z,80.27
2023-02-19T00:19:52.305Z,80.43
2023-02-19T00:20:23.894Z,80.56
2023-02-19T00:20:56.744Z,80.49
2023-02-19T00:21:29.478Z,80.57
2023-02-19T00:22:01.298Z,80.64
2023-02-19T00:22:32.880Z,80.60
2023-02-19T00:23:04.484Z,80.90
2023-02-19T00:23:36.358Z,81.19
2023-02-19T00:24:08.703Z,81.00
2023-02-19T00:24:40.397Z,80.24
2023-02-19T00:25:12.012Z,80.43
2023-02-19T00:25:43.725Z,80.10
2023-02-19T00:26:18.472Z,79.98
2023-02-19T00:26:50.588Z,79.94
2023-02-19T00:27:22.238Z,79.78
2023-02-19T00:27:53.861Z,79.67
2023-02-19T00:28:25.448Z,79.26
2023-02-19T00:28:58.055Z,79.45
2023-02-19T00:29:29.863Z,79.65
2023-02-19T00:30:01.650Z,79.27
2023-02-19T00:30:33.410Z,79.25
2023-02-19T00:31:20.806Z,79.31
2023-02-19T00:31:52.552Z,79.31
2023-02-19T00:32:24.217Z,79.12
2023-02-19T00:32:55.806Z,79.19
2023-02-19T00:33:29.657Z,79.23
2023-02-19T00:34:04.022Z,79.40
2023-02-19T00:34:36.451Z,79.11
2023-02-19T00:35:08.258Z,79.09
2023-02-19T00:35:39.907Z,79.15
2023-02-19T00:36:12.335Z,79.12
2023-02-19T00:36:44.066Z,79.21
2023-02-19T00:37:15.748Z,79.07
2023-02-19T00:37:47.390Z,79.18
2023-02-19T00:38:19.359Z,79.16
2023-02-19T00:38:51.525Z,79.11
2023-02-19T00:39:23.166Z,78.94
2023-02-19T00:39:54.895Z,79.10
2023-02-19T00:40:26.550Z,79.08
2023-02-19T00:41:01.078Z,79.14
2023-02-19T00:41:33.047Z,79.39
2023-02-19T00:42:04.925Z,79.32
2023-02-19T00:42:36.525Z,79.32
2023-02-19T00:43:08.174Z,79.29
2023-02-19T00:43:39.910Z,79.38
2023-02-19T00:44:12.557Z,79.72
2023-02-19T00:44:44.206Z,79.60
2023-02-19T00:45:15.767Z,79.94
2023-02-19T00:45:47.440Z,80.14
2023-02-19T00:46:25.094Z,80.24
2023-02-19T00:46:56.870Z,80.28
2023-02-19T00:47:28.498Z,80.26
2023-02-19T00:48:00.137Z,80.34
2023-02-19T00:48:31.982Z,80.36
2023-02-19T00:49:05.486Z,80.40
2023-02-19T00:49:37.186Z,80.74
2023-02-19T00:50:09.314Z,80.71
2023-02-19T00:50:40.967Z,80.69
2023-02-19T00:51:13.211Z,80.87
2023-02-19T00:51:44.867Z,80.85
2023-02-19T00:52:16.615Z,80.84
2023-02-19T00:52:48.265Z,80.90
2023-02-19T00:53:19.894Z,80.94
2023-02-19T00:53:51.560Z,81.06
2023-02-19T00:54:23.373Z,80.93
2023-02-19T00:54:54.940Z,81.23
2023-02-19T00:55:26.623Z,81.08
2023-02-19T00:55:58.252Z,81.11
2023-02-19T00:56:29.930Z,81.11
2023-02-19T00:57:01.697Z,81.12
2023-02-19T00:57:33.679Z,80.88
2023-02-19T00:58:05.401Z,80.90
2023-02-19T00:58:37.139Z,80.67
2023-02-19T00:59:09.054Z,80.83
2023-02-19T00:59:40.765Z,80.50
2023-02-19T01:00:12.969Z,80.32
2023-02-19T01:00:44.591Z,80.52
2023-02-19T01:01:17.061Z,80.56
2023-02-19T01:01:49.822Z,80.48
2023-02-19T01:02:21.785Z,80.45
2023-02-19T01:02:53.402Z,80.53
2023-02-19T01:03:25.196Z,80.58
2023-02-19T01:03:57.195Z,80.57
2023-02-19T01:04:28.844Z,80.44
2023-02-19T01:05:00.630Z,80.40
2023-02-19T01:05:32.284Z,80.35
2023-02-19T01:06:05.615Z,80.30
2023-02-19T01:06:37.554Z,80.40
2023-02-19T01:07:10.183Z,80.25
2023-02-19T01:07:41.795Z,80.42
2023-02-19T01:08:13.466Z,80.71
2023-02-19T01:08:45.727Z,80.84
2023-02-19T01:09:17.436Z,80.68
2023-02-19T01:09:49.120Z,80.76
2023-02-19T01:10:20.806Z,80.85
2023-02-19T01:10:52.490Z,80.91
2023-02-19T01:11:24.420Z,80.85
2023-02-19T01:11:56.024Z,81.10
2023-02-19T01:12:28.240Z,81.37
2023-02-19T01:12:59.866Z,81.18
2023-02-19T01:13:32.321Z,81.23
2023-02-19T01:14:05.045Z,81.44
2023-02-19T01:14:36.780Z,81.35
2023-02-19T01:15:08.930Z,81.45
2023-02-19T01:15:40.645Z,81.35
2023-02-19T01:16:20.799Z,81.44
2023-02-19T01:16:52.460Z,81.63
2023-02-19T01:17:24.479Z,81.48
2023-02-19T01:17:56.050Z,81.37
2023-02-19T01:18:27.609Z,81.44
2023-02-19T01:18:59.252Z,81.33
2023-02-19T01:19:30.969Z,81.45
2023-02-19T01:20:02.612Z,81.43
2023-02-19T01:20:34.524Z,81.66
2023-02-19T01:21:12.763Z,81.54
2023-02-19T01:21:44.381Z,81.34
2023-02-19T01:22:16.830Z,81.36
2023-02-19T01:22:48.421Z,81.30
2023-02-19T01:23:20.001Z,81.33
2023-02-19T01:23:52.993Z,81.32
2023-02-19T01:24:24.609Z,81.41
2023-02-19T01:24:56.250Z,81.40
2023-02-19T01:25:27.886Z,81.54
2023-02-19T01:25:59.474Z,81.18
2023-02-19T01:26:32.499Z,81.20
2023-02-19T01:27:04.126Z,81.28
2023-02-19T01:27:35.794Z,81.49
2023-02-19T01:28:08.364Z,81.71
2023-02-19T01:28:40.311Z,81.74
2023-02-19T01:29:11.925Z,81.80
2023-02-19T01:29:43.689Z,81.98
2023-02-19T01:30:15.435Z,81.92
2023-02-19T01:30:47.180Z,81.84
2023-02-19T01:31:24.170Z,81.74
2023-02-19T01:31:56.076Z,81.77
2023-02-19T01:32:28.190Z,81.73
2023-02-19T01:32:59.764Z,81.74
2023-02-19T01:33:31.977Z,81.82
2023-02-19T01:34:04.768Z,82.08
2023-02-19T01:34:36.325Z,81.91
2023-02-19T01:35:08.184Z,81.85
2023-02-19T01:35:40.609Z,81.68
2023-02-19T01:36:12.646Z,81.72
2023-02-19T01:36:44.399Z,81.61
2023-02-19T01:37:16.399Z,81.45
2023-02-19T01:37:48.018Z,81.63
2023-02-19T01:38:19.646Z,81.49
2023-02-19T01:38:51.436Z,81.43
2023-02-19T01:39:23.066Z,81.59
2023-02-19T01:39:54.813Z,81.55
2023-02-19T01:40:26.941Z,81.24
2023-02-19T01:41:01.899Z,81.42
2023-02-19T01:41:38.076Z,81.19
2023-02-19T01:42:16.529Z,81.30
2023-02-19T01:42:48.529Z,81.34
2023-02-19T01:43:20.196Z,81.36
2023-02-19T01:44:17.173Z,81.44
2023-02-19T01:44:48.818Z,81.19
2023-02-19T01:45:29.315Z,81.44
2023-02-19T01:46:01.468Z,81.61
2023-02-19T01:46:38.057Z,81.54
2023-02-19T01:47:09.763Z,81.53
2023-02-19T01:47:41.452Z,81.42
2023-02-19T01:48:21.076Z,81.70
2023-02-19T01:48:54.226Z,81.84
2023-02-19T01:49:31.848Z,81.91
2023-02-19T01:50:03.487Z,81.60
2023-02-19T01:50:46.177Z,81.70
2023-02-19T01:51:19.283Z,81.94
2023-02-19T01:51:58.405Z,81.76
2023-02-19T01:52:34.430Z,81.49
2023-02-19T01:53:08.964Z,81.52
2023-02-19T01:53:45.391Z,81.60
2023-02-19T01:54:19.857Z,81.79
2023-02-19T01:54:52.259Z,81.66
2023-02-19T01:55:24.271Z,81.75
2023-02-19T01:55:59.992Z,81.89
2023-02-19T01:56:34.241Z,82.12
2023-02-19T01:57:12.155Z,82.10
2023-02-19T01:57:48.330Z,82.28
2023-02-19T01:58:20.178Z,82.42
2023-02-19T01:58:52.226Z,82.52
2023-02-19T01:59:23.941Z,82.81
2023-02-19T02:00:01.870Z,82.95
2023-02-19T02:00:34.196Z,82.97
2023-02-19T02:01:07.773Z,82.91
2023-02-19T02:01:40.275Z,83.08
2023-02-19T02:02:12.461Z,83.09
2023-02-19T02:02:48.865Z,83.02
2023-02-19T02:03:21.127Z,83.50
2023-02-19T02:03:53.456Z,83.75
2023-02-19T02:04:25.105Z,83.70
2023-02-19T02:05:00.215Z,83.61
2023-02-19T02:05:57.625Z,83.67
2023-02-19T02:06:34.388Z,83.67
2023-02-19T02:07:29.869Z,83.92
2023-02-19T02:08:21.720Z,83.87
2023-02-19T02:09:14.610Z,83.90
2023-02-19T02:10:12.601Z,83.93
2023-02-19T02:10:44.627Z,84.07
2023-02-19T02:11:17.184Z,84.15
2023-02-19T02:11:51.797Z,84.14
2023-02-19T02:12:23.435Z,84.15
2023-02-19T02:12:57.906Z,84.22
2023-02-19T02:13:30.165Z,84.27
2023-02-19T02:14:03.142Z,84.26
2023-02-19T02:14:37.869Z,84.29
2023-02-19T02:15:10.130Z,84.39
2023-02-19T02:16:10.989Z,84.53
2023-02-19T02:16:53.292Z,84.29
2023-02-19T02:17:28.955Z,84.41
2023-02-19T02:18:08.788Z,84.28
2023-02-19T02:18:58.228Z,84.15
2023-02-19T02:20:00.722Z,84.30
2023-02-19T02:20:44.710Z,84.43
2023-02-19T02:21:53.466Z,84.28
2023-02-19T02:22:58.122Z,84.59
2023-02-19T02:23:56.276Z,84.38
2023-02-19T02:24:56.875Z,84.46
2023-02-19T02:25:34.679Z,84.36
2023-02-19T02:26:31.349Z,84.49
2023-02-19T02:27:16.665Z,84.97
2023-02-19T02:27:54.267Z,84.91
2023-02-19T02:28:36.736Z,85.03
2023-02-19T02:29:29.999Z,84.97
2023-02-19T02:30:30.306Z,85.03
2023-02-19T02:31:42.625Z,85.05
2023-02-19T02:32:21.500Z,84.92
2023-02-19T02:33:25.411Z,84.74
2023-02-19T02:34:04.086Z,84.84
2023-02-19T02:34:48.732Z,84.84
2023-02-19T02:35:34.755Z,85.08
2023-02-19T02:36:24.219Z,84.81
2023-02-19T02:36:56.899Z,84.91
2023-02-19T02:37:33.377Z,84.80
2023-02-19T02:38:10.187Z,84.71
2023-02-19T02:38:44.151Z,84.68
2023-02-19T02:39:19.621Z,84.49
2023-02-19T02:39:52.532Z,84.42
2023-02-19T02:40:24.261Z,84.32
2023-02-19T02:40:56.952Z,84.32
2023-02-19T02:41:28.933Z,84.17
2023-02-19T02:42:19.077Z,84.16
2023-02-19T02:42:50.662Z,84.21
2023-02-19T02:43:22.667Z,84.22
2023-02-19T02:43:54.336Z,84.45
2023-02-19T02:44:35.187Z,84.42
2023-02-19T02:45:36.896Z,84.12
2023-02-19T02:46:13.610Z,84.39
2023-02-19T02:46:46.466Z,84.47
2023-02-19T02:47:36.703Z,84.48
2023-02-19T02:48:17.756Z,84.52
2023-02-19T02:48:55.508Z,84.52
2023-02-19T02:49:27.460Z,84.49
2023-02-19T02:50:06.004Z,84.50
2023-02-19T02:51:13.925Z,84.36
2023-02-19T02:51:50.828Z,84.57
2023-02-19T02:52:45.942Z,84.52
2023-02-19T02:53:46.971Z,84.58
2023-02-19T02:54:45.081Z,84.62
2023-02-19T02:55:16.955Z,84.68
2023-02-19T02:55:51.914Z,84.45
2023-02-19T02:56:25.719Z,84.40
2023-02-19T02:56:58.925Z,84.26
2023-02-19T02:57:30.552Z,84.42
2023-02-19T02:58:03.094Z,84.56
2023-02-19T02:58:35.410Z,84.70
2023-02-19T02:59:10.142Z,84.74
2023-02-19T02:59:42.994Z,84.80
2023-02-19T03:00:15.567Z,84.46
2023-02-19T03:01:11.767Z,84.26
2023-02-19T03:02:06.749Z,84.14
2023-02-19T03:02:40.169Z,84.24
2023-02-19T03:03:13.309Z,84.47
2023-02-19T03:03:48.124Z,84.27
2023-02-19T03:04:24.079Z,84.04
2023-02-19T03:05:28.331Z,83.96
2023-02-19T03:06:04.903Z,83.93
2023-02-19T03:06:38.176Z,83.92
2023-02-19T03:07:11.025Z,84.22
2023-02-19T03:08:17.162Z,84.24
2023-02-19T03:08:58.108Z,84.41
2023-02-19T03:09:40.741Z,84.40
2023-02-19T03:10:17.275Z,84.21
2023-02-19T03:10:56.413Z,84.18
2023-02-19T03:11:49.491Z,84.26
2023-02-19T03:12:40.938Z,84.45
2023-02-19T03:13:46.758Z,84.83
2023-02-19T03:14:41.196Z,85.18
2023-02-19T03:15:33.113Z,85.23
2023-02-19T03:16:32.655Z,85.35
2023-02-19T03:17:48.270Z,85.51
2023-02-19T03:18:40.306Z,85.67
2023-02-19T03:19:21.716Z,85.96
2023-02-19T03:19:56.746Z,86.06
2023-02-19T03:20:31.395Z,86.18
2023-02-19T03:21:05.486Z,86.22
2023-02-19T03:21:41.439Z,86.38
2023-02-19T03:22:20.394Z,86.34
2023-02-19T03:22:55.838Z,86.29
2023-02-19T03:23:49.870Z,86.38
2023-02-19T03:24:45.638Z,86.52
2023-02-19T03:25:39.587Z,86.61
2023-02-19T03:26:12.750Z,86.63
2023-02-19T03:26:46.700Z,86.71
2023-02-19T03:27:21.136Z,86.91
2023-02-19T03:27:57.496Z,87.09
2023-02-19T03:28:51.479Z,87.04
2023-02-19T03:29:26.418Z,87.03
2023-02-19T03:30:01.890Z,86.92
2023-02-19T03:30:37.876Z,87.12
2023-02-19T03:31:13.946Z,87.21
2023-02-19T03:31:47.092Z,87.33
2023-02-19T03:32:28.989Z,87.30
2023-02-19T03:33:32.607Z,87.19
2023-02-19T03:34:10.371Z,87.40
2023-02-19T03:34:47.936Z,87.39
2023-02-19T03:35:23.492Z,87.47
2023-02-19T03:36:02.444Z,87.38
2023-02-19T03:36:40.877Z,87.13
2023-02-19T03:37:37.061Z,87.06
2023-02-19T03:38:18.753Z,86.91
2023-02-19T03:38:59.663Z,86.93
2023-02-19T03:39:32.189Z,86.98
2023-02-19T03:40:04.628Z,87.09
2023-02-19T03:40:50.538Z,86.98
2023-02-19T03:41:45.552Z,87.05
2023-02-19T03:42:27.890Z,87.18
2023-02-19T03:43:08.418Z,87.14
2023-02-19T03:44:07.031Z,87.05
2023-02-19T03:45:13.933Z,87.30
2023-02-19T03:45:53.569Z,87.36
2023-02-19T03:47:03.530Z,87.44
2023-02-19T03:48:12.154Z,87.18
2023-02-19T03:48:57.481Z,87.11
2023-02-19T03:50:00.154Z,87.17
2023-02-19T03:50:46.843Z,87.05
2023-02-19T03:51:28.958Z,87.02
2023-02-19T03:52:00.553Z,87.15
2023-02-19T03:52:53.163Z,87.24
2023-02-19T03:53:38.322Z,87.17
2023-02-19T03:54:21.420Z,87.11
2023-02-19T03:55:01.946Z,87.02
2023-02-19T03:55:41.528Z,87.06
2023-02-19T03:56:26.620Z,87.06
2023-02-19T03:57:08.602Z,86.99
2023-02-19T03:58:04.956Z,87.06
2023-02-19T03:58:49.408Z,87.03
2023-02-19T03:59:32.541Z,86.91
2023-02-19T04:00:13.174Z,87.02
2023-02-19T04:01:00.459Z,87.09
2023-02-19T04:01:43.454Z,87.25
2023-02-19T04:02:24.849Z,87.22
2023-02-19T04:03:11.700Z,87.17
2023-02-19T04:03:46.322Z,87.14
2023-02-19T04:04:29.261Z,87.13
2023-02-19T04:05:08.173Z,87.18
2023-02-19T04:05:47.295Z,87.17
2023-02-19T04:06:25.542Z,87.20
2023-02-19T04:06:58.388Z,87.10
2023-02-19T04:07:35.443Z,87.15
2023-02-19T04:08:18.458Z,87.15
2023-02-19T04:08:54.728Z,87.35
2023-02-19T04:09:31.799Z,87.44
2023-02-19T04:10:04.932Z,87.61
2023-02-19T04:10:38.267Z,87.60
2023-02-19T04:11:11.461Z,87.63
2023-02-19T04:11:43.940Z,87.69
2023-02-19T04:12:16.912Z,87.71
2023-02-19T04:13:02.771Z,87.65
2023-02-19T04:13:45.943Z,87.75
2023-02-19T04:14:39.585Z,88.06
2023-02-19T04:15:16.239Z,88.06
2023-02-19T04:15:51.198Z,87.96
2023-02-19T04:16:28.093Z,87.92
2023-02-19T04:17:03.392Z,87.92
2023-02-19T04:17:41.394Z,87.99
2023-02-19T04:18:17.906Z,88.17
2023-02-19T04:18:54.717Z,88.19
2023-02-19T04:19:28.920Z,88.26
2023-02-19T04:20:05.519Z,88.25
2023-02-19T04:20:42.251Z,88.27
2023-02-19T04:21:15.340Z,88.32
2023-02-19T04:21:48.510Z,88.40
2023-02-19T04:22:21.988Z,88.50
2023-02-19T04:22:53.825Z,88.42
2023-02-19T04:23:28.271Z,88.43
2023-02-19T04:24:06.572Z,88.48
2023-02-19T04:24:43.242Z,88.56
2023-02-19T04:25:14.868Z,88.61
2023-02-19T04:25:52.459Z,88.77
2023-02-19T04:26:24.425Z,88.86
2023-02-19T04:26:56.299Z,89.14
2023-02-19T04:27:27.899Z,89.17
2023-02-19T04:27:59.691Z,89.20
2023-02-19T04:28:31.399Z,89.34
2023-02-19T04:29:03.167Z,89.31
2023-02-19T04:29:34.914Z,89.23
2023-02-19T04:30:09.447Z,89.09
2023-02-19T04:30:41.444Z,89.19
2023-02-19T04:31:13.976Z,89.15
2023-02-19T04:31:45.842Z,89.49
2023-02-19T04:32:17.535Z,89.52
2023-02-19T04:32:49.285Z,89.48
2023-02-19T04:33:20.981Z,89.53
2023-02-19T04:33:52.685Z,89.64
2023-02-19T04:34:24.942Z,89.71
2023-02-19T04:34:56.566Z,89.67
2023-02-19T04:35:28.194Z,89.77
2023-02-19T04:35:59.984Z,89.62
2023-02-19T04:36:32.308Z,89.68
2023-02-19T04:37:04.149Z,89.72
2023-02-19T04:37:35.728Z,89.73
2023-02-19T04:38:07.795Z,89.96
2023-02-19T04:38:39.467Z,89.84
2023-02-19T04:39:11.150Z,89.88
2023-02-19T04:39:42.769Z,89.91
2023-02-19T04:40:14.359Z,89.89
2023-02-19T04:40:46.907Z,89.93
2023-02-19T04:41:18.544Z,89.99
2023-02-19T04:41:50.248Z,90.04
2023-02-19T04:42:21.828Z,90.04
2023-02-19T04:42:53.634Z,90.03
2023-02-19T04:43:25.234Z,90.12
2023-02-19T04:43:56.895Z,90.11
2023-02-19T04:44:28.686Z,90.19
2023-02-19T04:45:00.367Z,90.23
2023-02-19T04:45:31.971Z,90.31
2023-02-19T04:46:03.754Z,90.40
2023-02-19T04:46:35.379Z,90.28
2023-02-19T04:47:06.987Z,90.32
2023-02-19T04:47:38.600Z,90.33
2023-02-19T04:48:10.608Z,90.48
2023-02-19T04:48:43.172Z,90.48
2023-02-19T04:49:14.918Z,90.48
2023-02-19T04:49:46.665Z,90.55
2023-02-19T04:50:18.442Z,90.65
2023-02-19T04:50:50.049Z,90.48
2023-02-19T04:51:21.832Z,90.48
2023-02-19T04:51:53.455Z,90.36
2023-02-19T04:52:25.250Z,90.30
2023-02-19T04:52:56.821Z,90.51
2023-02-19T04:53:28.497Z,90.65
2023-02-19T04:54:00.164Z,90.61
2023-02-19T04:54:31.804Z,90.62
2023-02-19T04:55:03.502Z,90.59
2023-02-19T04:55:39.167Z,90.45
2023-02-19T04:56:13.173Z,90.49
2023-02-19T04:56:44.744Z,90.57
2023-02-19T04:57:16.479Z,90.84
2023-02-19T04:57:48.227Z,90.66
2023-02-19T04:58:20.669Z,90.71
2023-02-19T04:58:52.291Z,90.87
2023-02-19T04:59:24.067Z,91.00
2023-02-19T04:59:55.721Z,91.06
2023-02-19T05:00:27.407Z,91.18
2023-02-19T05:00:59.136Z,91.15
2023-02-19T05:01:30.867Z,91.17
2023-02-19T05:02:02.867Z,91.05
2023-02-19T05:02:34.478Z,91.23
2023-02-19T05:03:06.225Z,91.36
2023-02-19T05:03:38.147Z,91.47
2023-02-19T05:04:09.793Z,91.35
2023-02-19T05:04:41.681Z,91.37
2023-02-19T05:05:13.355Z,91.43
2023-02-19T05:05:44.976Z,91.51
2023-02-19T05:06:16.804Z,91.52
2023-02-19T05:06:48.398Z,91.45
2023-02-19T05:07:19.973Z,91.07
2023-02-19T05:07:51.751Z,91.06
2023-02-19T05:08:23.587Z,91.37
2023-02-19T05:08:55.190Z,91.68
2023-02-19T05:09:26.762Z,91.76
2023-02-19T05:09:59.835Z,91.67
2023-02-19T05:10:31.567Z,91.63
2023-02-19T05:11:05.731Z,91.57
2023-02-19T05:11:37.528Z,91.52
2023-02-19T05:12:09.134Z,91.64
2023-02-19T05:12:40.881Z,91.65
2023-02-19T05:13:12.539Z,91.75
2023-02-19T05:13:44.388Z,91.77
2023-02-19T05:14:17.237Z,91.71
2023-02-19T05:14:49.250Z,91.92
2023-02-19T05:15:20.832Z,92.00
2023-02-19T05:16:07.387Z,91.76
2023-02-19T05:16:39.012Z,91.68
2023-02-19T05:17:10.658Z,91.88
2023-02-19T05:17:42.349Z,91.92
2023-02-19T05:18:13.982Z,91.69
2023-02-19T05:18:46.763Z,91.73
2023-02-19T05:19:18.556Z,91.55
2023-02-19T05:19:50.214Z,91.74
2023-02-19T05:20:23.087Z,91.78
2023-02-19T05:20:54.765Z,91.75
2023-02-19T05:21:26.605Z,91.68
2023-02-19T05:21:58.217Z,91.40
2023-02-19T05:22:30.382Z,91.64
2023-02-19T05:23:01.994Z,91.55
2023-02-19T05:23:33.869Z,91.62
2023-02-19T05:24:05.601Z,91.67
2023-02-19T05:24:37.212Z,91.76
2023-02-19T05:25:08.872Z,91.92
2023-02-19T05:25:43.225Z,92.16
2023-02-19T05:26:18.853Z,92.11
2023-02-19T05:26:51.143Z,92.11
2023-02-19T05:27:22.804Z,92.14
2023-02-19T05:28:14.352Z,92.19
2023-02-19T05:28:47.613Z,92.66
2023-02-19T05:29:19.479Z,92.69
2023-02-19T05:29:51.097Z,92.97
2023-02-19T05:30:22.869Z,93.15
2023-02-19T05:30:56.620Z,92.77
2023-02-19T05:31:28.963Z,92.56
2023-02-19T05:32:00.755Z,92.28
2023-02-19T05:32:34.566Z,92.35
2023-02-19T05:33:06.210Z,92.63
2023-02-19T05:33:38.180Z,92.43
2023-02-19T05:34:09.854Z,91.99
2023-02-19T05:34:41.449Z,92.29
2023-02-19T05:35:13.075Z,92.78
2023-02-19T05:35:47.774Z,92.77
2023-02-19T05:36:22.067Z,92.69
2023-02-19T05:36:54.301Z,92.61
2023-02-19T05:37:25.872Z,92.73
2023-02-19T05:37:57.449Z,92.99
2023-02-19T05:38:29.022Z,93.37
2023-02-19T05:39:00.796Z,92.90
2023-02-19T05:39:32.383Z,92.86
2023-02-19T05:40:04.335Z,92.82
2023-02-19T05:40:36.644Z,92.55
2023-02-19T05:41:20.439Z,92.62
2023-02-19T05:41:52.155Z,92.77
2023-02-19T05:42:23.742Z,93.37
2023-02-19T05:42:55.331Z,93.79
2023-02-19T05:43:27.002Z,93.41
2023-02-19T05:43:59.001Z,93.04
2023-02-19T05:44:30.639Z,93.00
2023-02-19T05:45:02.313Z,92.72
2023-02-19T05:45:35.042Z,93.29
2023-02-19T05:46:07.760Z,93.06
2023-02-19T05:46:39.455Z,93.51
2023-02-19T05:47:11.096Z,93.66
2023-02-19T05:47:42.721Z,93.64
2023-02-19T05:48:14.488Z,93.69
2023-02-19T05:48:47.545Z,93.54
2023-02-19T05:49:19.167Z,93.36
2023-02-19T05:49:50.777Z,92.69
2023-02-19T05:50:22.411Z,93.29
2023-02-19T05:50:54.071Z,93.71
2023-02-19T05:51:27.169Z,93.24
2023-02-19T05:51:58.944Z,93.35
2023-02-19T05:52:30.556Z,93.30
2023-02-19T05:53:05.756Z,93.52
2023-02-19T05:53:38.176Z,94.57
2023-02-19T05:54:10.205Z,94.67
2023-02-19T05:54:41.922Z,94.77
2023-02-19T05:55:13.531Z,94.42
2023-02-19T05:55:45.136Z,93.27
2023-02-19T05:56:25.765Z,93.32
2023-02-19T05:56:57.813Z,93.43
2023-02-19T05:57:29.527Z,92.95
2023-02-19T05:58:01.552Z,93.35
2023-02-19T05:58:33.152Z,93.42
2023-02-19T05:59:18.102Z,93.61
2023-02-19T05:59:49.718Z,93.62
2023-02-19T06:00:21.792Z,93.62
2023-02-19T06:00:53.925Z,93.66
2023-02-19T06:01:27.897Z,93.39
2023-02-19T06:01:59.695Z,92.99
2023-02-19T06:02:32.806Z,93.13
2023-02-19T06:03:04.570Z,93.90
2023-02-19T06:03:36.208Z,93.45
2023-02-19T06:04:10.446Z,93.79
2023-02-19T06:04:42.055Z,94.12
2023-02-19T06:05:13.996Z,94.40
2023-02-19T06:05:45.657Z,93.96
2023-02-19T06:06:19.429Z,93.58
2023-02-19T06:06:51.156Z,93.94
2023-02-19T06:07:22.867Z,94.58
2023-02-19T06:07:54.536Z,94.46
2023-02-19T06:08:26.129Z,93.81
2023-02-19T06:08:58.136Z,92.85
2023-02-19T06:09:29.758Z,93.46
2023-02-19T06:10:01.591Z,94.01
2023-02-19T06:10:33.272Z,94.19
2023-02-19T06:11:05.102Z,93.80
2023-02-19T06:11:37.728Z,92.61
2023-02-19T06:12:09.309Z,92.90
2023-02-19T06:12:40.940Z,92.88
2023-02-19T06:13:12.783Z,92.72
2023-02-19T06:13:44.517Z,93.05
2023-02-19T06:14:16.195Z,92.98
2023-02-19T06:14:48.128Z,93.41
2023-02-19T06:15:20.167Z,93.25
2023-02-19T06:15:51.793Z,92.78
2023-02-19T06:16:23.859Z,92.93
2023-02-19T06:16:55.516Z,92.14
2023-02-19T06:17:27.152Z,92.22
2023-02-19T06:17:58.836Z,92.37
2023-02-19T06:18:30.499Z,92.27
2023-02-19T06:19:04.058Z,92.31
2023-02-19T06:19:35.662Z,92.89
2023-02-19T06:20:08.057Z,92.97
2023-02-19T06:20:39.961Z,92.36
2023-02-19T06:21:12.605Z,92.28
2023-02-19T06:21:44.508Z,93.07
2023-02-19T06:22:16.745Z,92.77
2023-02-19T06:22:50.713Z,92.64
2023-02-19T06:23:22.300Z,92.75
2023-02-19T06:23:54.288Z,92.28
2023-02-19T06:24:25.898Z,92.59
2023-02-19T06:24:57.740Z,92.63
2023-02-19T06:25:29.415Z,92.10
2023-02-19T06:26:21.856Z,92.47
2023-02-19T06:26:53.506Z,93.30
2023-02-19T06:27:25.186Z,92.50
2023-02-19T06:27:56.873Z,92.13
2023-02-19T06:28:28.489Z,92.49
2023-02-19T06:29:00.232Z,92.56
2023-02-19T06:29:32.652Z,92.38
2023-02-19T06:30:04.700Z,92.51
2023-02-19T06:30:37.026Z,93.02
2023-02-19T06:31:10.261Z,92.86
2023-02-19T06:31:42.224Z,92.01
2023-02-19T06:32:13.999Z,91.90
2023-02-19T06:32:45.714Z,91.90
2023-02-19T06:33:17.296Z,92.07
2023-02-19T06:33:50.717Z,92.11
2023-02-19T06:34:22.460Z,92.06
2023-02-19T06:34:54.090Z,92.16
2023-02-19T06:35:25.731Z,92.05
2023-02-19T06:36:02.343Z,92.01
2023-02-19T06:36:34.511Z,91.72
2023-02-19T06:37:06.166Z,91.98
2023-02-19T06:37:37.778Z,92.73
2023-02-19T06:38:09.431Z,93.02
2023-02-19T06:38:41.455Z,92.88
2023-02-19T06:39:13.161Z,92.29
2023-02-19T06:39:45.050Z,91.96
2023-02-19T06:40:16.921Z,92.34
2023-02-19T06:40:48.560Z,92.86
2023-02-19T06:41:20.237Z,92.57
2023-02-19T06:41:54.768Z,92.46
2023-02-19T06:42:26.418Z,92.26
2023-02-19T06:42:58.052Z,92.27
2023-02-19T06:43:31.720Z,92.16
2023-02-19T06:44:03.426Z,92.18
2023-02-19T06:44:35.188Z,92.26
2023-02-19T06:45:07.056Z,92.48
2023-02-19T06:45:38.681Z,92.78
2023-02-19T06:46:12.295Z,92.85
2023-02-19T06:46:43.938Z,92.21
2023-02-19T06:47:15.559Z,91.78
2023-02-19T06:47:47.165Z,92.18
2023-02-19T06:48:18.781Z,92.36
2023-02-19T06:48:51.087Z,92.65
2023-02-19T06:49:22.933Z,92.67
2023-02-19T06:49:54.560Z,92.48
2023-02-19T06:50:26.210Z,92.24
2023-02-19T06:50:57.907Z,92.35
2023-02-19T06:51:29.916Z,92.19
2023-02-19T06:52:03.689Z,92.17
2023-02-19T06:52:35.332Z,91.97
2023-02-19T06:53:07.010Z,92.10
2023-02-19T06:53:38.786Z,92.24
2023-02-19T06:54:10.378Z,92.23
2023-02-19T06:54:41.988Z,92.09
2023-02-19T06:55:13.620Z,92.05
2023-02-19T06:55:45.324Z,91.97
2023-02-19T06:56:33.256Z,91.99
2023-02-19T06:57:05.048Z,91.79
2023-02-19T06:57:36.624Z,91.71
2023-02-19T06:58:08.399Z,91.82
2023-02-19T06:58:39.980Z,91.69
2023-02-19T06:59:19.004Z,91.45
2023-02-19T06:59:50.614Z,91.33
2023-02-19T07:00:22.339Z,91.32
2023-02-19T07:00:54.486Z,91.19
2023-02-19T07:01:27.512Z,91.17
2023-02-19T07:01:59.217Z,91.11
2023-02-19T07:02:30.947Z,91.20
2023-02-19T07:03:05.231Z,91.27
2023-02-19T07:03:37.151Z,91.39
2023-02-19T07:04:09.349Z,91.31
2023-02-19T07:04:40.987Z,91.50
2023-02-19T07:05:12.685Z,91.47
2023-02-19T07:05:44.418Z,91.53
2023-02-19T07:06:16.159Z,91.65
2023-02-19T07:06:47.858Z,91.46
2023-02-19T07:07:19.477Z,91.52
2023-02-19T07:07:51.176Z,91.51
2023-02-19T07:08:22.744Z,91.57
2023-02-19T07:08:58.461Z,91.59
2023-02-19T07:09:30.185Z,91.56
2023-02-19T07:10:01.778Z,91.38
2023-02-19T07:10:33.515Z,91.22
2023-02-19T07:11:05.373Z,91.38
2023-02-19T07:11:39.054Z,91.36
2023-02-19T07:12:10.678Z,91.64
2023-02-19T07:12:42.317Z,91.55
2023-02-19T07:13:13.912Z,91.31
2023-02-19T07:13:45.875Z,91.51
2023-02-19T07:14:17.886Z,91.46
2023-02-19T07:14:49.462Z,91.43
2023-02-19T07:15:21.039Z,91.49
2023-02-19T07:15:58.015Z,91.27
2023-02-19T07:16:29.934Z,91.14
2023-02-19T07:17:01.534Z,91.18
2023-02-19T07:17:34.782Z,91.20
2023-02-19T07:18:10.402Z,91.27
2023-02-19T07:18:42.482Z,91.48
2023-02-19T07:19:15.286Z,91.83
2023-02-19T07:19:46.906Z,91.74
2023-02-19T07:20:18.627Z,91.65
2023-02-19T07:20:50.252Z,91.49
2023-02-19T07:21:21.864Z,91.75
2023-02-19T07:21:53.664Z,92.27
2023-02-19T07:22:25.261Z,91.82
2023-02-19T07:22:57.613Z,91.33
2023-02-19T07:23:29.320Z,90.93
2023-02-19T07:24:00.916Z,90.91
2023-02-19T07:24:32.553Z,90.32
2023-02-19T07:25:04.273Z,88.69
2023-02-19T07:25:37.806Z,87.97
2023-02-19T07:26:11.638Z,87.74
2023-02-19T07:26:43.299Z,87.13
2023-02-19T07:27:14.853Z,87.07
2023-02-19T07:27:46.459Z,86.64
2023-02-19T07:28:18.561Z,86.21
2023-02-19T07:28:51.154Z,85.93
2023-02-19T07:29:22.796Z,85.97
2023-02-19T07:29:54.393Z,85.11
2023-02-19T07:30:26.210Z,85.11
2023-02-19T07:31:02.182Z,84.95
2023-02-19T07:31:33.999Z,84.92
2023-02-19T07:32:05.719Z,84.99
2023-02-19T07:32:41.302Z,85.60